Time;durP1;ratioP1;P1;durP2;ratioP2;P2;SDS_P1;SDS_P2;PMS_P1;PMS_P2;Temp;Humidity;BMP_temperature;BMP_pressure;BME280_temperature;BME280_humidity;BME280_pressure;Samples;Min_cycle;Max_cycle;Signal;HPM_P1;HPM_P2
2023/07/23 00:02:09;;;;;;;3.10;1.70;;;16.50;99.90;;;;;;4995548;28;20113;-51
2023/07/23 00:04:35;;;;;;;5.00;2.13;;;16.50;99.90;;;;;;4995711;28;20026;-55
2023/07/23 00:07:00;;;;;;;3.95;1.90;;;16.50;99.90;;;;;;4995401;28;20027;-52
2023/07/23 00:09:26;;;;;;;4.32;2.03;;;16.50;99.90;;;;;;4995633;28;20034;-52
2023/07/23 00:11:52;;;;;;;4.18;1.85;;;16.50;99.90;;;;;;4994964;28;20109;-51
2023/07/23 00:14:19;;;;;;;8.10;1.88;;;16.50;99.90;;;;;;4994971;28;20109;-55
2023/07/23 00:16:45;;;;;;;6.20;2.00;;;16.50;99.90;;;;;;4994267;28;20042;-53
2023/07/23 00:19:15;;;;;;;4.93;2.00;;;16.50;99.90;;;;;;4994988;28;20049;-54
2023/07/23 00:21:41;;;;;;;4.07;1.90;;;16.50;99.90;;;;;;4995558;28;20463;-53
2023/07/23 00:24:07;;;;;;;3.15;1.70;;;16.60;99.90;;;;;;4994897;28;20060;-54
2023/07/23 00:26:33;;;;;;;3.80;1.80;;;16.50;99.90;;;;;;4995216;28;20038;-54
2023/07/23 00:29:00;;;;;;;4.32;1.77;;;16.60;99.90;;;;;;4995020;28;20022;-54
2023/07/23 00:31:27;;;;;;;3.95;1.55;;;16.60;99.90;;;;;;4993320;28;20041;-49
2023/07/23 00:33:53;;;;;;;5.85;1.75;;;16.60;99.90;;;;;;4991848;28;20050;-54
2023/07/23 00:36:18;;;;;;;4.55;1.80;;;16.60;99.90;;;;;;4994038;28;20030;-52
2023/07/23 00:38:44;;;;;;;5.97;1.92;;;16.60;99.90;;;;;;4994977;28;20475;-51
2023/07/23 00:41:10;;;;;;;3.85;1.55;;;16.60;99.90;;;;;;4995871;28;20033;-49
2023/07/23 00:43:35;;;;;;;3.65;1.73;;;16.60;99.90;;;;;;4994291;28;20058;-51
2023/07/23 00:46:01;;;;;;;5.15;1.80;;;16.70;99.90;;;;;;4994490;28;20019;-51
2023/07/23 00:48:27;;;;;;;4.47;1.80;;;16.80;99.90;;;;;;4994711;28;20027;-50
2023/07/23 00:50:52;;;;;;;3.28;1.95;;;16.80;99.90;;;;;;4994800;28;20088;-50
2023/07/23 00:53:19;;;;;;;4.20;1.88;;;16.90;99.90;;;;;;4995426;28;20070;-52
2023/07/23 00:55:45;;;;;;;4.25;1.85;;;16.80;99.90;;;;;;4994862;28;20101;-50
2023/07/23 00:58:10;;;;;;;4.25;1.77;;;16.90;99.90;;;;;;4995615;28;20054;-49
2023/07/23 01:00:36;;;;;;;4.07;1.80;;;16.90;99.90;;;;;;4994371;28;20042;-51
2023/07/23 01:03:02;;;;;;;4.60;2.13;;;16.90;99.90;;;;;;4993486;28;20026;-51
2023/07/23 01:05:29;;;;;;;4.20;1.90;;;16.90;99.90;;;;;;4993734;28;20022;-52
2023/07/23 01:07:56;;;;;;;3.50;1.70;;;17.00;99.90;;;;;;4993777;28;20033;-53
2023/07/23 01:10:22;;;;;;;4.43;1.90;;;17.00;99.90;;;;;;4994049;28;20327;-51
2023/07/23 01:12:50;;;;;;;3.58;1.67;;;16.90;99.90;;;;;;4993558;28;20395;-50
2023/07/23 01:15:16;;;;;;;6.75;2.25;;;16.90;99.90;;;;;;4993737;28;20042;-51
2023/07/23 01:17:42;;;;;;;4.68;2.20;;;16.90;99.90;;;;;;4993611;28;20041;-50
2023/07/23 01:20:08;;;;;;;6.57;2.50;;;16.90;99.90;;;;;;4993566;28;20050;-51
2023/07/23 01:22:35;;;;;;;5.05;2.55;;;16.90;99.90;;;;;;4993063;28;20050;-49
2023/07/23 01:25:02;;;;;;;5.38;2.22;;;16.90;99.90;;;;;;4993441;28;20030;-55
2023/07/23 01:27:27;;;;;;;5.53;2.55;;;17.00;99.90;;;;;;4993055;28;20069;-53
2023/07/23 01:29:53;;;;;;;5.43;2.00;;;17.00;99.90;;;;;;4993212;28;20034;-52
2023/07/23 01:32:19;;;;;;;4.03;1.83;;;17.00;99.90;;;;;;4994533;28;20034;-52
2023/07/23 01:34:45;;;;;;;6.22;2.00;;;17.00;99.90;;;;;;4993878;28;20543;-49
2023/07/23 01:37:11;;;;;;;3.53;1.67;;;17.00;99.90;;;;;;4992754;28;20030;-51
2023/07/23 01:39:37;;;;;;;3.80;1.77;;;17.00;99.90;;;;;;4994874;28;20414;-51
2023/07/23 01:42:03;;;;;;;4.78;2.17;;;17.00;99.90;;;;;;4992631;28;20045;-55
2023/07/23 01:44:29;;;;;;;4.50;1.98;;;17.00;99.90;;;;;;4995007;28;20037;-51
2023/07/23 01:46:55;;;;;;;4.90;2.10;;;17.10;99.90;;;;;;4983470;28;20391;-50
2023/07/23 01:49:20;;;;;;;4.00;2.15;;;17.10;99.90;;;;;;4999626;28;20077;-50
2023/07/23 01:51:46;;;;;;;5.10;2.47;;;17.10;99.90;;;;;;5000747;28;20034;-51
2023/07/23 01:54:12;;;;;;;4.78;2.08;;;17.10;99.90;;;;;;4999213;28;20133;-53
2023/07/23 01:56:37;;;;;;;7.47;2.53;;;17.10;99.90;;;;;;4983092;28;20074;-52
2023/07/23 01:59:04;;;;;;;4.72;2.40;;;17.10;99.90;;;;;;4999252;28;20038;-53
2023/07/23 02:01:30;;;;;;;4.90;2.10;;;17.20;99.90;;;;;;4999034;28;20030;-49
2023/07/23 02:03:55;;;;;;;6.72;2.60;;;17.30;99.90;;;;;;5000398;28;20165;-52
2023/07/23 02:06:21;;;;;;;4.30;2.40;;;17.30;99.90;;;;;;4982975;28;20529;-52
2023/07/23 02:08:47;;;;;;;5.85;2.45;;;17.30;99.90;;;;;;5000675;28;20045;-50
2023/07/23 02:11:12;;;;;;;6.10;2.58;;;17.30;99.90;;;;;;4999467;28;20057;-51
2023/07/23 02:13:38;;;;;;;5.03;2.30;;;17.40;99.90;;;;;;4998851;28;20530;-53
2023/07/23 02:16:04;;;;;;;5.57;2.50;;;17.40;99.90;;;;;;4999483;28;20461;-54
2023/07/23 02:18:30;;;;;;;4.70;2.42;;;17.50;99.90;;;;;;4999018;28;20098;-50
2023/07/23 02:20:56;;;;;;;6.97;2.70;;;17.60;99.90;;;;;;4998785;28;20056;-50
2023/07/23 02:23:23;;;;;;;6.72;2.58;;;17.60;99.90;;;;;;4998458;28;20030;-52
2023/07/23 02:25:49;;;;;;;6.60;2.95;;;17.70;99.90;;;;;;4999103;28;20029;-53
2023/07/23 02:28:15;;;;;;;5.72;2.85;;;17.80;99.90;;;;;;4998890;28;20437;-52
2023/07/23 02:30:41;;;;;;;5.28;2.40;;;17.80;99.90;;;;;;5000120;28;20027;-53
2023/07/23 02:33:07;;;;;;;5.03;2.33;;;17.80;99.90;;;;;;4998610;28;20045;-54
2023/07/23 02:35:36;;;;;;;5.20;2.30;;;17.90;99.90;;;;;;4999969;28;20038;-50
2023/07/23 02:38:03;;;;;;;6.57;2.67;;;18.00;99.90;;;;;;5000144;28;20090;-54
2023/07/23 02:40:33;;;;;;;6.55;3.15;;;18.00;99.90;;;;;;4998610;28;20441;-54
2023/07/23 02:42:59;;;;;;;5.70;2.33;;;18.10;99.90;;;;;;4998647;28;20100;-53
2023/07/23 02:45:25;;;;;;;4.88;2.40;;;18.10;99.90;;;;;;4998896;28;20074;-51
2023/07/23 02:47:50;;;;;;;5.25;2.50;;;18.10;99.90;;;;;;4998763;28;20030;-52
2023/07/23 02:50:16;;;;;;;6.05;2.20;;;18.00;99.90;;;;;;4999414;28;20126;-52
2023/07/23 02:52:42;;;;;;;5.75;2.53;;;18.10;99.90;;;;;;4999800;28;20026;-52
2023/07/23 02:55:08;;;;;;;7.43;2.40;;;18.10;99.90;;;;;;4998687;28;20077;-52
2023/07/23 02:57:33;;;;;;;6.25;2.55;;;18.10;99.90;;;;;;4996499;28;20041;-53
2023/07/23 02:59:59;;;;;;;5.03;2.83;;;18.10;99.90;;;;;;4996904;28;20034;-54
2023/07/23 03:02:24;;;;;;;5.55;2.67;;;18.10;99.90;;;;;;4995489;28;20057;-50
2023/07/23 03:04:50;;;;;;;6.38;2.65;;;18.10;99.90;;;;;;4995411;28;20537;-53
2023/07/23 03:07:16;;;;;;;5.00;2.40;;;18.10;99.90;;;;;;4997081;28;20026;-53
2023/07/23 03:09:41;;;;;;;4.80;2.50;;;18.20;99.90;;;;;;4995164;28;20026;-54
2023/07/23 03:12:09;;;;;;;6.40;2.90;;;18.20;99.90;;;;;;4995139;28;20030;-51
2023/07/23 03:14:35;;;;;;;5.03;2.65;;;18.20;99.90;;;;;;4996102;28;20156;-54
2023/07/23 03:17:01;;;;;;;5.22;2.60;;;18.20;99.90;;;;;;4996901;28;20153;-54
2023/07/23 03:19:27;;;;;;;7.38;2.85;;;18.30;99.90;;;;;;4995472;28;20041;-53
2023/07/23 03:21:53;;;;;;;5.25;2.63;;;18.30;99.90;;;;;;4996247;28;20034;-54
2023/07/23 03:24:20;;;;;;;6.05;3.08;;;18.20;99.90;;;;;;4995260;28;20026;-55
2023/07/23 03:26:45;;;;;;;4.82;2.47;;;18.30;99.90;;;;;;4996224;28;20081;-55
2023/07/23 03:29:11;;;;;;;5.90;2.72;;;18.30;99.90;;;;;;4994841;28;20034;-54
2023/07/23 03:31:36;;;;;;;6.18;3.03;;;18.40;99.90;;;;;;4996418;28;20084;-54
2023/07/23 03:34:02;;;;;;;5.05;2.90;;;18.40;99.90;;;;;;4994466;28;20376;-53
2023/07/23 03:36:28;;;;;;;6.38;3.05;;;18.40;99.90;;;;;;4994653;28;20035;-53
2023/07/23 03:38:54;;;;;;;4.53;2.42;;;18.40;99.90;;;;;;4995948;28;20030;-53
2023/07/23 03:41:19;;;;;;;7.05;3.17;;;18.40;99.90;;;;;;4995879;28;20081;-51
2023/07/23 03:43:47;;;;;;;5.38;2.58;;;18.40;99.90;;;;;;4994340;28;20677;-54
2023/07/23 03:46:13;;;;;;;7.78;2.92;;;18.40;99.90;;;;;;4994534;28;20042;-54
2023/07/23 03:48:39;;;;;;;5.68;2.40;;;18.50;99.90;;;;;;4995606;28;20084;-53
2023/07/23 03:51:04;;;;;;;4.30;2.25;;;18.50;99.90;;;;;;4994065;28;20034;-53
2023/07/23 03:53:30;;;;;;;5.10;2.67;;;18.60;99.90;;;;;;4993975;28;20257;-54
2023/07/23 03:55:55;;;;;;;6.25;2.97;;;18.60;99.90;;;;;;4994363;28;20030;-53
2023/07/23 03:58:21;;;;;;;5.18;2.58;;;18.60;99.90;;;;;;4995739;28;20037;-55
2023/07/23 04:00:47;;;;;;;4.40;2.40;;;18.60;99.90;;;;;;4995791;28;20158;-53
2023/07/23 04:03:12;;;;;;;5.47;2.60;;;18.70;99.90;;;;;;4995343;28;20483;-52
2023/07/23 04:05:38;;;;;;;5.93;2.80;;;18.70;99.90;;;;;;4995644;28;20030;-54
2023/07/23 04:08:04;;;;;;;5.05;2.60;;;18.80;99.90;;;;;;4993778;28;20072;-54
2023/07/23 04:10:29;;;;;;;5.93;2.47;;;18.80;99.90;;;;;;4995313;28;20086;-50
2023/07/23 04:12:55;;;;;;;4.97;2.50;;;18.90;99.90;;;;;;4993658;28;20045;-54
2023/07/23 04:15:20;;;;;;;4.80;2.35;;;18.90;99.90;;;;;;4995570;28;20030;-55
2023/07/23 04:17:46;;;;;;;4.35;2.35;;;18.90;99.90;;;;;;4994174;28;20048;-53
2023/07/23 04:20:12;;;;;;;5.20;2.22;;;18.90;99.90;;;;;;4994896;28;20410;-52
2023/07/23 04:22:38;;;;;;;4.82;2.42;;;18.90;99.90;;;;;;4994259;28;20109;-53
2023/07/23 04:25:05;;;;;;;6.30;2.50;;;18.90;99.90;;;;;;4993576;28;20502;-53
2023/07/23 04:27:32;;;;;;;4.95;2.47;;;19.00;99.90;;;;;;4995057;28;20033;-54
2023/07/23 04:29:58;;;;;;;5.18;2.40;;;18.90;99.90;;;;;;4993865;28;20105;-52
2023/07/23 04:32:24;;;;;;;4.93;2.63;;;18.90;99.90;;;;;;4993183;28;20103;-55
2023/07/23 04:34:49;;;;;;;6.25;2.50;;;18.90;99.90;;;;;;4993366;28;20070;-53
2023/07/23 04:37:15;;;;;;;5.70;2.40;;;19.00;99.90;;;;;;4993755;28;20088;-52
2023/07/23 04:39:41;;;;;;;3.55;2.00;;;19.00;99.90;;;;;;4993515;28;20115;-53
2023/07/23 04:42:06;;;;;;;4.78;2.25;;;19.00;99.90;;;;;;4994374;28;20042;-53
2023/07/23 04:44:32;;;;;;;3.35;1.70;;;19.00;99.90;;;;;;4994406;28;20031;-54
2023/07/23 04:46:57;;;;;;;6.30;2.15;;;19.00;99.90;;;;;;4994638;28;20026;-53
2023/07/23 04:49:23;;;;;;;3.90;2.20;;;19.10;99.90;;;;;;4994589;28;20034;-54
2023/07/23 04:51:49;;;;;;;4.57;2.40;;;19.20;99.90;;;;;;4994485;28;20035;-54
2023/07/23 04:54:14;;;;;;;3.55;1.98;;;19.20;99.90;;;;;;4994061;28;20066;-54
2023/07/23 04:56:40;;;;;;;4.90;2.30;;;19.30;99.90;;;;;;4994576;28;20057;-54
2023/07/23 04:59:05;;;;;;;5.30;2.10;;;19.20;99.90;;;;;;4992930;28;20037;-52
2023/07/23 05:01:32;;;;;;;4.72;2.50;;;19.30;99.90;;;;;;4994088;28;20423;-54
2023/07/23 05:03:58;;;;;;;4.00;2.03;;;19.30;99.90;;;;;;4993835;28;20037;-51
2023/07/23 05:06:23;;;;;;;4.70;2.20;;;19.30;99.90;;;;;;4994588;28;20048;-54
2023/07/23 05:08:49;;;;;;;4.97;2.20;;;19.30;99.90;;;;;;4994500;28;20096;-49
2023/07/23 05:11:15;;;;;;;5.38;2.20;;;19.40;99.90;;;;;;4994226;28;20031;-53
2023/07/23 05:13:40;;;;;;;3.88;1.90;;;19.50;99.90;;;;;;4993950;28;20047;-52
2023/07/23 05:16:06;;;;;;;3.17;1.88;;;19.50;99.90;;;;;;4993589;28;20427;-54
2023/07/23 05:18:32;;;;;;;5.32;2.08;;;19.40;99.90;;;;;;4994334;28;20030;-53
2023/07/23 05:21:00;;;;;;;4.20;2.00;;;19.50;99.80;;;;;;4993501;28;20041;-53
2023/07/23 05:23:26;;;;;;;6.20;2.08;;;19.50;99.80;;;;;;4993244;28;20038;-54
2023/07/23 05:25:54;;;;;;;3.05;1.63;;;19.50;99.80;;;;;;4993958;28;20030;-55
2023/07/23 05:28:19;;;;;;;6.97;3.50;;;19.50;99.90;;;;;;4992417;28;20056;-54
2023/07/23 05:30:45;;;;;;;5.70;1.98;;;19.60;99.90;;;;;;4993692;28;20437;-52
2023/07/23 05:33:11;;;;;;;2.33;1.38;;;19.60;99.70;;;;;;4993247;28;20026;-53
2023/07/23 05:35:37;;;;;;;3.88;1.83;;;19.50;99.60;;;;;;4993864;28;20034;-53
2023/07/23 05:38:03;;;;;;;10.52;5.03;;;19.50;99.80;;;;;;4993880;28;20045;-51
2023/07/23 05:40:30;;;;;;;4.35;2.22;;;19.60;99.90;;;;;;4994093;28;20030;-52
2023/07/23 05:42:56;;;;;;;6.68;3.30;;;19.60;99.70;;;;;;4993214;28;20030;-54
2023/07/23 05:45:22;;;;;;;5.60;2.60;;;19.70;99.50;;;;;;4993768;28;20031;-53
2023/07/23 05:47:47;;;;;;;3.63;1.88;;;19.70;99.50;;;;;;4993406;28;20033;-52
2023/07/23 05:50:13;;;;;;;5.28;2.40;;;19.80;99.30;;;;;;4992373;28;20038;-52
2023/07/23 05:52:38;;;;;;;11.43;4.72;;;19.80;99.50;;;;;;4991750;28;20037;-54
2023/07/23 05:55:04;;;;;;;4.47;2.63;;;19.90;99.40;;;;;;4993613;28;20027;-52
2023/07/23 05:57:30;;;;;;;12.00;6.45;;;19.80;99.20;;;;;;4993863;28;20030;-53
2023/07/23 05:59:55;;;;;;;7.40;3.58;;;20.00;99.30;;;;;;4993778;28;20027;-53
2023/07/23 06:02:21;;;;;;;6.78;2.45;;;20.00;98.80;;;;;;4993683;28;20059;-52
2023/07/23 06:04:47;;;;;;;6.25;2.55;;;20.00;98.90;;;;;;4993441;28;20042;-52
2023/07/23 06:07:12;;;;;;;5.43;1.90;;;20.10;98.70;;;;;;4993541;28;20030;-52
2023/07/23 06:09:38;;;;;;;4.82;2.63;;;20.10;98.70;;;;;;4992492;28;20557;-53
2023/07/23 06:12:04;;;;;;;6.85;4.00;;;20.00;98.60;;;;;;4993344;28;20037;-53
2023/07/23 06:14:30;;;;;;;8.88;3.53;;;20.00;98.90;;;;;;4993457;28;20023;-54
2023/07/23 06:16:55;;;;;;;4.53;2.05;;;20.00;98.60;;;;;;4993121;28;20466;-53
2023/07/23 06:19:22;;;;;;;2.97;1.50;;;20.00;98.60;;;;;;4993516;28;20050;-53
2023/07/23 06:21:48;;;;;;;4.43;1.73;;;19.90;98.80;;;;;;4993283;28;20062;-54
2023/07/23 06:24:14;;;;;;;6.60;3.25;;;19.90;98.80;;;;;;4992703;28;20510;-50
2023/07/23 06:26:39;;;;;;;6.57;2.42;;;19.90;98.80;;;;;;4993241;28;20037;-53
2023/07/23 06:29:05;;;;;;;2.88;1.58;;;19.80;98.60;;;;;;4993620;28;20034;-54
2023/07/23 06:31:31;;;;;;;3.60;2.00;;;19.80;98.80;;;;;;4993638;28;20030;-54
2023/07/23 06:33:56;;;;;;;3.40;1.75;;;19.90;98.90;;;;;;4996852;28;20387;-54
2023/07/23 06:36:22;;;;;;;2.22;1.40;;;19.80;98.80;;;;;;4995430;28;20034;-49
2023/07/23 06:38:49;;;;;;;6.05;3.40;;;19.70;99.00;;;;;;4997367;28;20073;-53
2023/07/23 06:41:14;;;;;;;6.22;2.90;;;19.70;99.20;;;;;;4997237;28;20054;-50
2023/07/23 06:43:40;;;;;;;4.28;1.75;;;19.70;99.30;;;;;;4995597;28;20030;-53
2023/07/23 06:46:06;;;;;;;3.50;1.83;;;19.70;98.90;;;;;;4997284;28;20033;-53
2023/07/23 06:48:31;;;;;;;4.70;2.28;;;19.80;98.80;;;;;;4997025;28;20093;-52
2023/07/23 06:50:57;;;;;;;4.20;1.90;;;19.80;98.70;;;;;;4996680;28;20031;-51
2023/07/23 06:53:23;;;;;;;2.60;1.63;;;19.80;98.80;;;;;;4995953;28;20415;-53
2023/07/23 06:56:03;;;;;;;4.15;2.00;;;19.80;98.80;;;;;;4996806;28;20065;-51
2023/07/23 06:58:32;;;;;;;4.65;2.05;;;19.80;98.60;;;;;;4997170;28;20045;-55
2023/07/23 07:00:58;;;;;;;4.72;2.45;;;19.80;98.60;;;;;;4996734;28;20030;-51
2023/07/23 07:03:24;;;;;;;3.97;2.03;;;19.80;98.90;;;;;;4995454;28;20514;-53
2023/07/23 07:05:50;;;;;;;4.22;2.13;;;19.80;98.70;;;;;;4995345;28;20142;-49
2023/07/23 07:08:16;;;;;;;4.75;2.47;;;19.80;98.60;;;;;;4996399;28;20058;-52
2023/07/23 07:10:41;;;;;;;4.75;2.13;;;19.90;98.80;;;;;;4996762;28;20031;-54
2023/07/23 07:13:07;;;;;;;3.63;1.75;;;19.90;98.80;;;;;;4995984;28;20026;-52
2023/07/23 07:15:33;;;;;;;3.30;1.42;;;19.90;98.70;;;;;;4996470;28;20461;-52
2023/07/23 07:17:58;;;;;;;4.43;1.80;;;19.90;98.70;;;;;;4994888;28;20031;-53
2023/07/23 07:20:24;;;;;;;3.85;1.63;;;19.80;99.00;;;;;;4996447;28;20026;-54
2023/07/23 07:22:49;;;;;;;4.32;1.60;;;19.80;99.20;;;;;;4996136;28;20030;-53
2023/07/23 07:25:15;;;;;;;4.63;2.53;;;19.80;99.40;;;;;;4996279;28;20030;-50
2023/07/23 07:27:41;;;;;;;4.18;1.88;;;19.70;99.60;;;;;;4996008;28;20088;-54
2023/07/23 07:30:07;;;;;;;7.38;3.40;;;19.50;99.90;;;;;;4996178;28;20023;-54
2023/07/23 07:32:32;;;;;;;5.47;2.47;;;19.40;99.90;;;;;;4995329;28;20042;-55
2023/07/23 07:34:58;;;;;;;4.35;2.13;;;19.40;99.90;;;;;;4995991;28;20497;-53
2023/07/23 07:37:24;;;;;;;5.18;2.70;;;19.20;99.90;;;;;;4996080;28;20038;-54
2023/07/23 07:39:50;;;;;;;6.15;2.45;;;19.10;99.90;;;;;;4995771;28;20502;-55
2023/07/23 07:42:15;;;;;;;4.70;1.95;;;19.10;99.90;;;;;;4993931;28;20026;-54
2023/07/23 07:44:42;;;;;;;5.10;2.55;;;19.10;99.90;;;;;;4995251;28;20499;-54
2023/07/23 07:47:08;;;;;;;5.97;1.92;;;19.00;99.90;;;;;;4995777;28;20371;-53
2023/07/23 07:49:33;;;;;;;4.55;2.50;;;19.00;99.90;;;;;;4994119;28;20049;-54
2023/07/23 07:51:59;;;;;;;6.00;2.55;;;19.10;99.90;;;;;;4995818;28;20034;-53
2023/07/23 07:54:25;;;;;;;5.00;2.20;;;19.10;99.90;;;;;;4995280;28;20027;-52
2023/07/23 07:56:51;;;;;;;4.25;2.13;;;19.10;99.90;;;;;;4995340;28;20038;-54
2023/07/23 07:59:17;;;;;;;5.03;2.25;;;19.10;99.90;;;;;;4995523;28;20061;-54
2023/07/23 08:01:42;;;;;;;3.30;1.90;;;19.10;99.90;;;;;;4994729;28;20490;-53
2023/07/23 08:04:10;;;;;;;6.57;2.17;;;19.00;99.90;;;;;;4995143;28;20038;-51
2023/07/23 08:06:37;;;;;;;7.22;2.17;;;18.90;99.90;;;;;;4995339;28;20026;-53
2023/07/23 08:09:03;;;;;;;4.28;2.38;;;18.90;99.90;;;;;;4995630;28;20030;-54
2023/07/23 08:11:30;;;;;;;4.13;2.10;;;18.90;99.90;;;;;;4995325;28;20057;-53
2023/07/23 08:13:56;;;;;;;5.85;2.72;;;18.90;99.90;;;;;;4994810;28;20037;-53
2023/07/23 08:16:22;;;;;;;3.33;1.73;;;18.90;99.90;;;;;;4995362;28;20093;-54
2023/07/23 08:18:48;;;;;;;4.05;1.85;;;18.90;99.90;;;;;;4994066;28;20487;-54
2023/07/23 08:21:14;;;;;;;3.80;1.65;;;18.90;99.90;;;;;;4995703;28;20027;-51
2023/07/23 08:23:40;;;;;;;4.63;1.60;;;18.90;99.90;;;;;;4995039;28;20033;-55
2023/07/23 08:26:07;;;;;;;6.47;3.00;;;18.90;99.90;;;;;;4994862;28;20035;-53
2023/07/23 08:28:37;;;;;;;4.90;1.90;;;18.90;99.90;;;;;;4995050;28;20138;-52
2023/07/23 08:31:03;;;;;;;3.10;1.60;;;18.80;99.90;;;;;;4994866;28;20034;-52
2023/07/23 08:33:30;;;;;;;4.53;1.90;;;18.80;99.90;;;;;;4994738;28;20376;-51
2023/07/23 08:35:57;;;;;;;5.38;2.20;;;18.70;99.90;;;;;;4994799;28;20392;-52
2023/07/23 08:38:24;;;;;;;4.00;1.98;;;18.60;99.90;;;;;;4995033;28;20038;-54
2023/07/23 08:41:00;;;;;;;4.90;2.47;;;18.50;99.90;;;;;;4995106;28;20030;-54
2023/07/23 08:43:57;;;;;;;4.47;2.10;;;18.40;99.90;;;;;;4994397;28;20093;-55
2023/07/23 08:46:22;;;;;;;6.63;2.00;;;18.30;99.90;;;;;;4994726;28;20029;-55
2023/07/23 08:48:54;;;;;;;5.32;2.08;;;18.10;99.90;;;;;;4994737;28;20030;-49
2023/07/23 08:51:23;;;;;;;3.42;1.75;;;18.00;99.90;;;;;;4994603;28;20034;-53
2023/07/23 08:53:50;;;;;;;3.78;1.92;;;17.90;99.90;;;;;;4994195;28;20041;-53
2023/07/23 08:56:17;;;;;;;3.28;1.60;;;17.60;99.90;;;;;;4994004;28;20045;-52
2023/07/23 08:58:43;;;;;;;2.38;1.48;;;17.50;99.90;;;;;;4994388;28;20092;-53
2023/07/23 09:01:12;;;;;;;4.72;1.80;;;17.40;99.90;;;;;;4993003;28;20034;-53
2023/07/23 09:03:38;;;;;;;;;;;17.40;99.90;;;;;;4994561;28;20438;-54
2023/07/23 09:06:05;;;;;;;4.22;1.40;;;17.30;99.90;;;;;;4994334;28;19972;-54
2023/07/23 09:08:31;;;;;;;5.00;1.60;;;17.30;99.90;;;;;;4994395;28;20026;-52
2023/07/23 09:10:57;;;;;;;3.72;1.70;;;17.30;99.90;;;;;;4994223;28;20037;-53
2023/07/23 09:13:32;;;;;;;3.55;1.70;;;17.30;99.90;;;;;;4992401;28;20121;-52
2023/07/23 09:15:58;;;;;;;2.75;1.73;;;17.40;99.90;;;;;;4992887;28;20049;-54
2023/07/23 09:18:24;;;;;;;3.38;1.83;;;17.50;99.90;;;;;;4994238;28;20030;-52
2023/07/23 09:20:50;;;;;;;2.53;1.35;;;17.50;99.90;;;;;;4993027;28;20441;-54
2023/07/23 09:23:16;;;;;;;3.85;1.58;;;17.50;99.90;;;;;;4994000;28;20033;-54
2023/07/23 09:25:43;;;;;;;2.90;1.70;;;17.60;99.90;;;;;;4992673;28;20034;-53
2023/07/23 09:28:29;;;;;;;4.18;1.73;;;17.50;99.90;;;;;;4994168;28;20062;-54
2023/07/23 09:30:57;;;;;;;4.05;1.70;;;17.60;99.90;;;;;;4993876;28;20446;-54
2023/07/23 09:33:51;;;;;;;3.22;1.25;;;17.70;99.90;;;;;;4993510;28;20046;-49
2023/07/23 09:36:26;;;;;;;3.17;1.63;;;17.80;99.90;;;;;;4992847;28;20096;-54
2023/07/23 09:38:56;;;;;;;5.22;2.13;;;17.70;99.90;;;;;;4993646;28;20181;-49
2023/07/23 09:41:22;;;;;;;2.97;1.70;;;17.80;99.90;;;;;;4993296;28;20030;-54
2023/07/23 09:43:49;;;;;;;5.15;1.80;;;17.80;99.90;;;;;;4993351;28;20109;-54
2023/07/23 09:46:14;;;;;;;3.65;1.80;;;17.90;99.90;;;;;;4993639;28;20022;-51
2023/07/23 09:48:48;;;;;;;3.67;1.70;;;17.90;99.90;;;;;;4993808;28;20570;-53
2023/07/23 09:51:14;;;;;;;2.65;1.60;;;17.90;99.90;;;;;;4993791;28;20046;-52
2023/07/23 09:53:46;;;;;;;2.28;1.15;;;17.90;99.90;;;;;;4993527;28;20061;-53
2023/07/23 09:56:16;;;;;;;2.33;1.45;;;18.00;99.90;;;;;;4994185;28;20046;-52
2023/07/23 09:58:44;;;;;;;4.03;1.60;;;18.00;99.90;;;;;;4994169;28;20293;-54
2023/07/23 10:01:11;;;;;;;2.92;1.63;;;17.90;99.90;;;;;;4993543;28;20353;-52
2023/07/23 10:03:37;;;;;;;2.80;1.27;;;17.90;99.90;;;;;;4993371;28;20027;-54
2023/07/23 10:06:03;;;;;;;3.15;1.52;;;18.00;99.90;;;;;;4995030;28;20089;-54
2023/07/23 10:08:31;;;;;;;3.05;1.55;;;18.00;99.90;;;;;;4997427;28;20027;-52
2023/07/23 10:10:56;;;;;;;3.10;1.38;;;18.00;99.90;;;;;;4997057;28;20041;-54
2023/07/23 10:13:22;;;;;;;2.78;1.63;;;18.00;99.90;;;;;;4996964;28;20038;-54
2023/07/23 10:15:50;;;;;;;3.50;1.65;;;18.10;99.90;;;;;;4996844;28;20038;-54
2023/07/23 10:18:16;;;;;;;3.92;1.55;;;18.20;99.90;;;;;;4997732;28;20099;-52
2023/07/23 10:20:45;;;;;;;3.03;1.40;;;18.30;99.90;;;;;;4997334;28;20066;-49
2023/07/23 10:23:11;;;;;;;4.93;2.08;;;18.40;99.90;;;;;;4996656;28;20526;-53
2023/07/23 10:25:36;;;;;;;4.22;2.28;;;18.50;99.90;;;;;;4996992;28;20038;-52
2023/07/23 10:28:07;;;;;;;2.35;1.27;;;18.50;99.90;;;;;;4997386;28;20037;-53
2023/07/23 10:30:34;;;;;;;2.97;1.48;;;18.60;99.90;;;;;;4997297;28;20117;-53
2023/07/23 10:33:12;;;;;;;3.30;1.70;;;18.70;99.90;;;;;;4995446;28;20040;-52
2023/07/23 10:35:52;;;;;;;2.35;1.27;;;18.70;99.90;;;;;;4997367;28;20022;-55
2023/07/23 10:38:23;;;;;;;4.50;1.60;;;18.70;99.90;;;;;;4995626;28;20134;-51
2023/07/23 10:40:48;;;;;;;32.63;16.27;;;18.80;99.90;;;;;;4996985;28;20034;-53
2023/07/23 10:43:15;;;;;;;13.30;7.15;;;18.90;99.90;;;;;;4996425;28;20030;-54
2023/07/23 10:46:02;;;;;;;9.07;4.65;;;18.90;99.90;;;;;;4996610;28;20542;-52
2023/07/23 10:48:37;;;;;;;15.82;7.95;;;19.00;99.90;;;;;;4995159;28;20037;-54
2023/07/23 10:51:07;;;;;;;11.65;6.63;;;19.00;99.90;;;;;;4997101;28;20034;-52
2023/07/23 10:53:36;;;;;;;8.27;4.28;;;19.10;99.90;;;;;;4996214;28;20426;-53
2023/07/23 10:56:02;;;;;;;;;;;19.10;99.90;;;;;;4997939;28;20041;-53
2023/07/23 10:58:28;;;;;;;4.93;2.38;;;19.10;99.90;;;;;;4995430;28;19909;-53
2023/07/23 11:00:58;;;;;;;11.70;5.97;;;19.10;99.90;;;;;;4996718;28;20434;-54
2023/07/23 11:03:26;;;;;;;5.68;2.47;;;19.10;99.90;;;;;;4996002;28;20131;-54
2023/07/23 11:05:52;;;;;;;7.03;3.30;;;19.10;99.90;;;;;;4996358;28;20050;-53
2023/07/23 11:08:26;;;;;;;4.30;2.20;;;19.10;99.90;;;;;;4996651;28;20101;-53
2023/07/23 11:11:01;;;;;;;3.13;1.65;;;19.10;99.90;;;;;;4996269;28;20061;-51
2023/07/23 11:13:28;;;;;;;4.05;2.13;;;19.20;99.90;;;;;;4995852;28;20045;-52
2023/07/23 11:15:55;;;;;;;7.47;3.63;;;19.20;99.90;;;;;;4996342;28;20386;-54
2023/07/23 11:18:21;;;;;;;12.43;6.65;;;19.20;99.90;;;;;;4995388;28;20038;-54
2023/07/23 11:20:51;;;;;;;4.22;2.35;;;19.10;99.90;;;;;;4995913;28;20030;-54
2023/07/23 11:23:20;;;;;;;3.50;1.42;;;19.20;99.90;;;;;;4995756;28;20306;-54
2023/07/23 11:25:47;;;;;;;2.28;1.25;;;19.20;99.90;;;;;;4996101;28;20527;-54
2023/07/23 11:28:15;;;;;;;2.65;1.10;;;19.20;99.90;;;;;;4996273;28;20387;-52
2023/07/23 11:30:42;;;;;;;2.03;1.05;;;19.20;99.90;;;;;;4995609;28;20061;-54
2023/07/23 11:33:08;;;;;;;2.70;1.20;;;19.20;99.90;;;;;;4995750;28;20030;-54
2023/07/23 11:35:34;;;;;;;1.40;0.80;;;19.10;99.90;;;;;;4995772;28;20038;-53
2023/07/23 11:38:04;;;;;;;3.80;1.42;;;19.00;99.90;;;;;;4995953;28;20031;-51
2023/07/23 11:40:30;;;;;;;3.00;1.40;;;18.90;99.90;;;;;;4996046;28;20026;-52
2023/07/23 11:42:56;;;;;;;3.90;1.77;;;19.00;99.90;;;;;;4995371;28;20399;-54
2023/07/23 11:45:22;;;;;;;3.15;1.30;;;19.00;99.90;;;;;;4995805;28;20038;-54
2023/07/23 11:47:54;;;;;;;2.85;1.20;;;19.00;99.90;;;;;;4996286;28;20029;-53
2023/07/23 11:50:21;;;;;;;3.08;1.38;;;19.10;99.90;;;;;;4995530;28;20168;-55
2023/07/23 11:52:48;;;;;;;3.80;1.30;;;19.00;99.90;;;;;;4995294;28;20037;-54
2023/07/23 11:55:26;;;;;;;1.85;1.13;;;19.00;99.90;;;;;;4995219;28;20041;-55
2023/07/23 11:57:56;;;;;;;2.08;1.10;;;19.10;99.90;;;;;;4995803;28;20062;-52
2023/07/23 12:00:29;;;;;;;2.20;0.90;;;19.10;99.90;;;;;;4995162;28;20042;-53
2023/07/23 12:02:56;;;;;;;3.10;1.45;;;19.00;99.90;;;;;;4995126;28;20026;-54
2023/07/23 12:05:22;;;;;;;4.70;1.70;;;19.00;99.90;;;;;;4993651;28;20042;-51
2023/07/23 12:07:48;;;;;;;3.15;1.45;;;19.00;99.90;;;;;;4995075;28;20023;-54
2023/07/23 12:10:15;;;;;;;2.90;1.65;;;19.10;99.90;;;;;;4995435;28;20030;-51
2023/07/23 12:12:44;;;;;;;5.05;1.30;;;19.20;99.90;;;;;;4994745;28;20045;-54
2023/07/23 12:15:15;;;;;;;2.22;1.13;;;19.30;99.90;;;;;;4993660;28;20407;-55
2023/07/23 12:17:41;;;;;;;2.05;1.20;;;19.30;99.90;;;;;;4995108;28;20042;-54
2023/07/23 12:20:09;;;;;;;4.28;1.60;;;19.40;99.90;;;;;;4993548;28;20483;-53
2023/07/23 12:22:49;;;;;;;2.40;1.30;;;19.40;99.90;;;;;;4994386;28;20038;-54
2023/07/23 12:25:14;;;;;;;1.52;0.90;;;19.40;99.90;;;;;;4994929;28;20538;-54
2023/07/23 12:27:40;;;;;;;3.20;1.25;;;19.40;99.90;;;;;;4994165;28;20038;-55
2023/07/23 12:30:06;;;;;;;3.58;1.40;;;19.40;99.90;;;;;;4994788;28;20030;-55
2023/07/23 12:32:34;;;;;;;3.17;1.38;;;19.50;99.90;;;;;;4994250;28;20118;-54
2023/07/23 12:35:01;;;;;;;1.92;1.08;;;19.50;99.90;;;;;;4994673;28;20038;-52
2023/07/23 12:37:26;;;;;;;3.58;1.65;;;19.40;99.90;;;;;;4995004;28;20039;-53
2023/07/23 12:39:55;;;;;;;1.45;0.90;;;19.40;99.90;;;;;;4994673;28;20030;-55
2023/07/23 12:42:21;;;;;;;2.83;1.20;;;19.30;99.90;;;;;;4994370;28;20339;-55
2023/07/23 12:44:47;;;;;;;2.50;1.30;;;19.30;99.90;;;;;;4994361;28;20545;-52
2023/07/23 12:47:12;;;;;;;2.08;1.17;;;19.30;99.90;;;;;;4994639;28;20026;-55